Impacts TAF Board
For situational awareness. Not to be used for flight planning purposes.
IDs:

KDEN - Denver Intl, CO, US

Issued at 1120 UTC 10 Aug 2022
Updated at 1417 UTC 10 Aug 2022
Potential Impact None Slight Moderate High
Time1353Z 10/15Z 10/16Z 10/17Z 10/18Z 10/19Z 10/20Z 10/21Z 10/22Z 10/23Z 11/00Z 11/01Z 11/02Z 11/03Z>>
Type OBS PRVL PRVL PRVL PRVL PRVL PRVL PRVL PRVL PRVL PRVL PRVL PRVL PRVL
VIS 10 >6 >6 >6 >6 >6 >6 >6 >6 >6 >6 >6 >6 >6
CIG -- -- -- -- -- -- -- -- -- -- -- -- -- --
Cover CLR SKC SKC SCT SCT SCT SCT SCT SCT SCT SCT SCT SCT SCT
FltCat VFR VFR VFR VFR VFR VFR VFR VFR VFR VFR VFR VFR VFR VFR
WX -- -- -- -- -- -- -- -- -- -- -- -- -- --
WDir 220 200 200 140 140 140 140 140 140 140 140 140 140 140
WSpd 7 8 8 10 10 10 10 10 10 10 10 10 10 10
WGst -- -- -- -- -- -- -- -- -- -- -- -- -- --
WSHgt -- -- -- -- -- -- -- -- -- -- -- -- -- --
WSDir -- -- -- -- -- -- -- -- -- -- -- -- -- --
WSSpd -- -- -- -- -- -- -- -- -- -- -- -- -- --
Raw TAF
KDEN 101120Z 1012/1118 20008KT P6SM SKC
  FM101700 14010KT P6SM SCT110
  FM110500 17014G20KT P6SM FEW200
  FM111300 21008KT P6SM SCT120


Raw METAR
KDEN 101353Z 22007KT 10SM CLR 23/13 A3034 RMK AO2 SLP183 T02280128
KDEN 101253Z 21008KT 10SM CLR 22/12 A3033 RMK AO2 SLP178 T02170122
KDEN 101153Z 18006KT 10SM CLR 19/13 A3032 RMK AO2 SLP176 T01890128 10228 20189 53002

METAR Board
Radar Display
Forecast Discussion
For situational awareness. Not to be used for flight planning purposes.